Time,TemperatureF,DewpointF,PressureIn,WindDirection,WindDirectionDegrees,WindSpeedMPH,WindSpeedGustMPH,Humidity,HourlyPrecipIn,Conditions,Clouds,dailyrainin,SoftwareType,DateUTC
2013-01-30 00:03:00,60.0,52.0,29.83,SE,129,1.0,3.0,74,0.00,,,0.00,,2013-01-30 05:03:00,
2013-01-30 00:12:00,60.0,51.0,29.82,WNW,291,2.0,4.0,72,0.00,,,0.00,,2013-01-30 05:12:00,
2013-01-30 00:22:00,60.0,51.0,29.82,WNW,291,2.0,4.0,72,0.00,,,0.00,,2013-01-30 05:22:00,
2013-01-30 00:32:00,60.0,51.0,29.82,WNW,297,2.0,4.0,72,0.00,,,0.00,,2013-01-30 05:32:00,
2013-01-30 00:43:00,60.0,51.0,29.82,WNW,297,2.0,4.0,72,0.00,,,0.00,,2013-01-30 05:43:00,
2013-01-30 00:52:00,59.0,50.0,29.80,WSW,250,0.0,1.0,72,0.00,,,0.00,,2013-01-30 05:52:00,
2013-01-30 01:02:00,58.0,49.0,29.80,West,275,1.0,2.0,73,0.00,,,0.00,,2013-01-30 06:02:00,
2013-01-30 01:11:00,58.0,49.0,29.80,West,275,1.0,2.0,73,0.00,,,0.00,,2013-01-30 06:11:00,
2013-01-30 01:21:00,59.0,50.0,29.79,WSW,252,1.0,3.0,73,0.00,,,0.00,,2013-01-30 06:21:00,
2013-01-30 01:32:00,59.0,50.0,29.78,WNW,294,1.0,3.0,71,0.00,,,0.00,,2013-01-30 06:32:00,
2013-01-30 01:42:00,59.0,50.0,29.78,WNW,294,1.0,3.0,71,0.00,,,0.00,,2013-01-30 06:42:00,
2013-01-30 01:52:00,58.0,49.0,29.77,WNW,294,0.0,1.0,71,0.00,,,0.00,,2013-01-30 06:52:00,
2013-01-30 02:02:00,58.0,49.0,29.76,NW,304,0.0,3.0,71,0.00,,,0.00,,2013-01-30 07:02:00,
2013-01-30 02:11:00,58.0,49.0,29.76,NW,304,0.0,3.0,71,0.00,,,0.00,,2013-01-30 07:11:00,
2013-01-30 02:21:00,60.0,49.0,29.75,SSE,167,3.0,6.0,67,0.00,,,0.00,,2013-01-30 07:21:00,
2013-01-30 02:32:00,60.0,49.0,29.74,WNW,298,2.0,6.0,66,0.00,,,0.00,,2013-01-30 07:32:00,
2013-01-30 02:42:00,60.0,49.0,29.74,WNW,298,2.0,6.0,66,0.00,,,0.00,,2013-01-30 07:42:00,
2013-01-30 02:52:00,60.0,49.0,29.73,SW,236,1.0,4.0,66,0.00,,,0.00,,2013-01-30 07:52:00,
2013-01-30 03:01:00,60.0,49.0,29.72,West,279,2.0,5.0,66,0.00,,,0.00,,2013-01-30 08:01:00,
2013-01-30 03:11:00,60.0,49.0,29.72,West,279,2.0,5.0,66,0.00,,,0.00,,2013-01-30 08:11:00,
2013-01-30 03:21:00,61.0,49.0,29.71,SW,236,2.0,7.0,65,0.00,,,0.00,,2013-01-30 08:21:00,
2013-01-30 03:32:00,61.0,49.0,29.70,SSW,200,3.0,10.0,65,0.00,,,0.00,,2013-01-30 08:32:00,
2013-01-30 03:42:00,61.0,49.0,29.70,SSW,200,3.0,10.0,65,0.00,,,0.00,,2013-01-30 08:42:00,
2013-01-30 03:52:00,61.0,49.0,29.70,West,279,0.0,6.0,64,0.00,,,0.00,,2013-01-30 08:52:00,
2013-01-30 04:02:00,62.0,50.0,29.68,SW,221,2.0,6.0,64,0.00,,,0.00,,2013-01-30 09:02:00,
2013-01-30 04:11:00,62.0,50.0,29.68,SW,221,2.0,6.0,64,0.00,,,0.00,,2013-01-30 09:11:00,
2013-01-30 04:21:00,62.0,49.0,29.67,South,183,0.0,4.0,63,0.00,,,0.00,,2013-01-30 09:21:00,
2013-01-30 04:32:00,61.0,49.0,29.66,WSW,237,1.0,2.0,64,0.00,,,0.00,,2013-01-30 09:32:00,
2013-01-30 04:42:00,61.0,49.0,29.66,WSW,237,1.0,2.0,64,0.00,,,0.00,,2013-01-30 09:42:00,
2013-01-30 04:52:00,62.0,49.0,29.66,West,264,0.0,3.0,63,0.00,,,0.00,,2013-01-30 09:52:00,
2013-01-30 05:01:00,62.0,50.0,29.65,ESE,111,2.0,7.0,64,0.00,,,0.00,,2013-01-30 10:01:00,
2013-01-30 05:11:00,62.0,50.0,29.65,ESE,111,2.0,7.0,64,0.00,,,0.00,,2013-01-30 10:11:00,
2013-01-30 05:21:00,61.0,49.0,29.64,ESE,110,0.0,4.0,65,0.00,,,0.00,,2013-01-30 10:21:00,
2013-01-30 05:32:00,62.0,50.0,29.63,SE,143,0.0,3.0,65,0.00,,,0.00,,2013-01-30 10:32:00,
2013-01-30 05:42:00,62.0,50.0,29.63,SE,143,0.0,3.0,65,0.00,,,0.00,,2013-01-30 10:42:00,
2013-01-30 05:52:00,62.0,50.0,29.63,ENE,69,1.0,4.0,64,0.00,,,0.00,,2013-01-30 10:52:00,
2013-01-30 06:02:00,62.0,50.0,29.61,SSW,202,2.0,9.0,65,0.00,,,0.00,,2013-01-30 11:02:00,
2013-01-30 06:11:00,62.0,50.0,29.61,SSW,202,2.0,9.0,65,0.00,,,0.00,,2013-01-30 11:11:00,
2013-01-30 06:22:00,62.0,51.0,29.60,ESE,105,4.0,7.0,66,0.00,,,0.00,,2013-01-30 11:22:00,
2013-01-30 06:33:00,63.0,52.0,29.59,SSE,163,2.0,13.0,67,0.00,,,0.00,,2013-01-30 11:33:00,
2013-01-30 06:42:00,63.0,52.0,29.59,SSE,163,2.0,13.0,67,0.00,,,0.00,,2013-01-30 11:42:00,
2013-01-30 06:52:00,63.0,52.0,29.57,SE,146,2.0,8.0,67,0.00,,,0.00,,2013-01-30 11:52:00,
2013-01-30 07:02:00,63.0,52.0,29.57,WNW,293,0.0,7.0,68,0.00,,,0.00,,2013-01-30 12:02:00,
2013-01-30 07:12:00,63.0,52.0,29.57,WNW,293,0.0,7.0,68,0.00,,,0.00,,2013-01-30 12:12:00,
2013-01-30 07:22:00,63.0,53.0,29.56,SW,225,3.0,12.0,69,0.00,,,0.00,,2013-01-30 12:22:00,
2013-01-30 07:33:00,63.0,53.0,29.55,East,80,2.0,13.0,69,0.00,,,0.00,,2013-01-30 12:33:00,
2013-01-30 07:43:00,63.0,53.0,29.55,East,80,2.0,13.0,69,0.00,,,0.00,,2013-01-30 12:43:00,
2013-01-30 08:03:00,65.0,54.0,29.54,West,266,7.0,13.0,67,0.00,,,0.00,,2013-01-30 13:03:00,
2013-01-30 08:12:00,65.0,54.0,29.54,West,266,7.0,13.0,67,0.00,,,0.00,,2013-01-30 13:12:00,
2013-01-30 08:23:00,65.0,54.0,29.54,SSE,158,5.0,8.0,67,0.00,,,0.00,,2013-01-30 13:23:00,
2013-01-30 08:33:00,65.0,54.0,29.54,WSW,254,4.0,9.0,67,0.00,,,0.00,,2013-01-30 13:33:00,
2013-01-30 08:43:00,65.0,54.0,29.54,WSW,254,4.0,9.0,67,0.00,,,0.00,,2013-01-30 13:43:00,
2013-01-30 08:53:00,65.0,54.0,29.53,WSW,244,5.0,13.0,67,0.00,,,0.00,,2013-01-30 13:53:00,
2013-01-30 09:03:00,65.0,53.0,29.52,SSW,203,3.0,12.0,66,0.00,,,0.00,,2013-01-30 14:03:00,
2013-01-30 09:12:00,65.0,53.0,29.52,SSW,203,3.0,12.0,66,0.00,,,0.00,,2013-01-30 14:12:00,
2013-01-30 09:23:00,66.0,54.0,29.51,SSE,150,2.0,9.0,65,0.00,,,0.00,,2013-01-30 14:23:00,
2013-01-30 09:33:00,66.0,53.0,29.50,ENE,74,1.0,7.0,64,0.00,,,0.00,,2013-01-30 14:33:00,
2013-01-30 09:42:00,66.0,53.0,29.50,ENE,74,1.0,7.0,64,0.00,,,0.00,,2013-01-30 14:42:00,
2013-01-30 09:53:00,68.0,54.0,29.49,ESE,119,3.0,12.0,62,0.00,,,0.00,,2013-01-30 14:53:00,
2013-01-30 10:03:00,69.0,54.0,29.47,South,178,4.0,12.0,59,0.00,,,0.00,,2013-01-30 15:03:00,
2013-01-30 10:12:00,69.0,54.0,29.47,South,178,4.0,12.0,59,0.00,,,0.00,,2013-01-30 15:12:00,
2013-01-30 10:23:00,69.0,54.0,29.47,West,272,3.0,17.0,59,0.00,,,0.00,,2013-01-30 15:23:00,
2013-01-30 10:33:00,70.0,55.0,29.47,SW,229,8.0,17.0,60,0.00,,,0.00,,2013-01-30 15:33:00,
2013-01-30 10:43:00,70.0,55.0,29.47,SW,229,8.0,17.0,60,0.00,,,0.00,,2013-01-30 15:43:00,
2013-01-30 10:53:00,62.0,55.0,29.58,WNW,292,9.0,31.0,77,0.06,,,0.06,,2013-01-30 15:53:00,
2013-01-30 11:03:00,59.0,54.0,29.59,WSW,249,7.0,19.0,85,0.10,,,0.10,,2013-01-30 16:03:00,
2013-01-30 11:12:00,59.0,54.0,29.59,WSW,249,7.0,19.0,85,0.10,,,0.10,,2013-01-30 16:12:00,
2013-01-30 11:23:00,59.0,55.0,29.58,West,274,6.0,13.0,86,0.11,,,0.11,,2013-01-30 16:23:00,
2013-01-30 11:32:00,59.0,55.0,29.58,WSW,237,4.0,9.0,88,0.12,,,0.12,,2013-01-30 16:32:00,
2013-01-30 11:42:00,59.0,55.0,29.58,WSW,237,4.0,9.0,88,0.12,,,0.12,,2013-01-30 16:42:00,
2013-01-30 11:52:00,59.0,55.0,29.58,WSW,237,4.0,9.0,88,0.12,,,0.12,,2013-01-30 16:52:00,
2013-01-30 12:02:00,58.0,55.0,29.56,SW,232,1.0,4.0,89,0.03,,,0.13,,2013-01-30 17:02:00,
2013-01-30 12:12:00,58.0,55.0,29.56,SW,232,1.0,4.0,89,0.03,,,0.13,,2013-01-30 17:12:00,
2013-01-30 12:23:00,59.0,55.0,29.57,West,260,2.0,6.0,88,0.02,,,0.13,,2013-01-30 17:23:00,
2013-01-30 12:33:00,58.0,54.0,29.58,West,260,1.0,4.0,88,0.01,,,0.13,,2013-01-30 17:33:00,
2013-01-30 12:43:00,58.0,54.0,29.58,West,260,1.0,4.0,88,0.01,,,0.13,,2013-01-30 17:43:00,
2013-01-30 12:53:00,58.0,55.0,29.57,WSW,244,3.0,6.0,89,0.00,,,0.13,,2013-01-30 17:53:00,
2013-01-30 13:03:00,58.0,55.0,29.57,SSW,210,3.0,6.0,89,0.00,,,0.13,,2013-01-30 18:03:00,
2013-01-30 13:13:00,58.0,55.0,29.57,SSW,210,3.0,6.0,89,0.00,,,0.13,,2013-01-30 18:13:00,
2013-01-30 13:23:00,58.0,55.0,29.56,SSW,196,1.0,6.0,89,0.01,,,0.14,,2013-01-30 18:23:00,
2013-01-30 13:33:00,58.0,55.0,29.57,West,281,2.0,7.0,89,0.01,,,0.14,,2013-01-30 18:33:00,
2013-01-30 13:42:00,58.0,55.0,29.57,West,281,2.0,7.0,89,0.01,,,0.14,,2013-01-30 18:42:00,
2013-01-30 13:53:00,58.0,55.0,29.58,SW,225,3.0,11.0,89,0.02,,,0.15,,2013-01-30 18:53:00,
2013-01-30 14:03:00,57.0,53.0,29.58,SW,229,3.0,10.0,88,0.04,,,0.17,,2013-01-30 19:03:00,
2013-01-30 14:12:00,57.0,53.0,29.58,SW,229,3.0,10.0,88,0.04,,,0.17,,2013-01-30 19:12:00,
2013-01-30 14:22:00,57.0,54.0,29.56,WSW,244,1.0,4.0,89,0.05,,,0.19,,2013-01-30 19:22:00,
2013-01-30 14:32:00,57.0,54.0,29.55,NE,51,1.0,4.0,91,0.06,,,0.20,,2013-01-30 19:32:00,
2013-01-30 14:43:00,57.0,54.0,29.55,NE,51,1.0,4.0,91,0.06,,,0.20,,2013-01-30 19:43:00,
2013-01-30 14:53:00,56.0,54.0,29.55,WSW,240,1.0,4.0,92,0.07,,,0.22,,2013-01-30 19:53:00,
2013-01-30 15:03:00,56.0,54.0,29.55,SE,126,1.0,3.0,92,0.08,,,0.25,,2013-01-30 20:03:00,
2013-01-30 15:12:00,56.0,54.0,29.55,SE,126,1.0,3.0,92,0.08,,,0.25,,2013-01-30 20:12:00,
2013-01-30 15:22:00,56.0,54.0,29.53,WSW,258,0.0,3.0,92,0.08,,,0.27,,2013-01-30 20:22:00,
2013-01-30 15:33:00,55.0,53.0,29.53,SSW,205,0.0,3.0,93,0.07,,,0.28,,2013-01-30 20:33:00,
2013-01-30 15:42:00,55.0,53.0,29.53,SSW,205,0.0,3.0,93,0.07,,,0.28,,2013-01-30 20:42:00,
2013-01-30 15:53:00,55.0,53.0,29.52,SE,143,1.0,3.0,93,0.07,,,0.30,,2013-01-30 20:53:00,
2013-01-30 16:03:00,55.0,53.0,29.52,SSE,151,0.0,2.0,93,0.06,,,0.31,,2013-01-30 21:03:00,
2013-01-30 16:12:00,55.0,53.0,29.52,SSE,151,0.0,2.0,93,0.06,,,0.31,,2013-01-30 21:12:00,
2013-01-30 16:23:00,55.0,53.0,29.52,WSW,252,1.0,4.0,94,0.06,,,0.33,,2013-01-30 21:23:00,
2013-01-30 16:32:00,55.0,53.0,29.51,SW,217,0.0,5.0,94,0.09,,,0.37,,2013-01-30 21:32:00,
2013-01-30 16:42:00,55.0,53.0,29.51,SW,217,0.0,5.0,94,0.09,,,0.37,,2013-01-30 21:42:00,
2013-01-30 16:53:00,55.0,53.0,29.50,ESE,107,0.0,4.0,94,0.11,,,0.41,,2013-01-30 21:53:00,
2013-01-30 17:03:00,55.0,53.0,29.48,SSE,150,1.0,4.0,94,0.12,,,0.44,,2013-01-30 22:03:00,
2013-01-30 17:12:00,55.0,53.0,29.48,SSE,150,1.0,4.0,94,0.12,,,0.44,,2013-01-30 22:12:00,
2013-01-30 17:22:00,55.0,54.0,29.48,SE,130,1.0,5.0,95,0.12,,,0.46,,2013-01-30 22:22:00,
2013-01-30 17:32:00,54.0,53.0,29.46,ESE,102,2.0,7.0,95,0.11,,,0.48,,2013-01-30 22:32:00,
2013-01-30 17:42:00,54.0,53.0,29.46,ESE,102,2.0,7.0,95,0.11,,,0.48,,2013-01-30 22:42:00,
2013-01-30 17:53:00,54.0,52.0,29.45,SE,134,2.0,8.0,94,0.08,,,0.49,,2013-01-30 22:53:00,
2013-01-30 18:02:00,54.0,52.0,29.42,ESE,103,2.0,7.0,94,0.07,,,0.51,,2013-01-30 23:02:00,
2013-01-30 18:12:00,54.0,52.0,29.42,ESE,103,2.0,7.0,94,0.07,,,0.51,,2013-01-30 23:12:00,
2013-01-30 18:22:00,54.0,53.0,29.41,ESE,107,3.0,10.0,95,0.08,,,0.54,,2013-01-30 23:22:00,
2013-01-30 18:32:00,55.0,53.0,29.40,SSW,202,4.0,13.0,94,0.08,,,0.56,,2013-01-30 23:32:00,
2013-01-30 18:42:00,55.0,53.0,29.40,SSW,202,4.0,13.0,94,0.08,,,0.56,,2013-01-30 23:42:00,
2013-01-30 18:52:00,55.0,53.0,29.39,SW,219,3.0,8.0,94,0.08,,,0.57,,2013-01-30 23:52:00,
2013-01-30 19:02:00,55.0,53.0,29.39,ESE,110,1.0,8.0,94,0.08,,,0.59,,2013-01-31 00:02:00,
2013-01-30 19:11:00,55.0,53.0,29.39,ESE,110,1.0,8.0,94,0.08,,,0.59,,2013-01-31 00:11:00,
2013-01-30 19:22:00,55.0,53.0,29.36,SE,128,2.0,8.0,94,0.08,,,0.62,,2013-01-31 00:22:00,
2013-01-30 19:32:00,55.0,53.0,29.36,ESE,111,1.0,13.0,93,0.09,,,0.65,,2013-01-31 00:32:00,
2013-01-30 19:42:00,55.0,53.0,29.36,ESE,111,1.0,13.0,93,0.09,,,0.65,,2013-01-31 00:42:00,
2013-01-30 19:53:00,55.0,53.0,29.34,ESE,116,4.0,9.0,94,0.11,,,0.68,,2013-01-31 00:53:00,
2013-01-30 20:02:00,55.0,53.0,29.33,East,101,2.0,11.0,93,0.11,,,0.70,,2013-01-31 01:02:00,
2013-01-30 20:12:00,55.0,53.0,29.33,East,101,2.0,11.0,93,0.11,,,0.70,,2013-01-31 01:12:00,
2013-01-30 20:22:00,56.0,54.0,29.31,SE,130,3.0,11.0,93,0.10,,,0.72,,2013-01-31 01:22:00,
2013-01-30 20:32:00,56.0,54.0,29.31,SSW,213,5.0,10.0,93,0.07,,,0.72,,2013-01-31 01:32:00,
2013-01-30 20:42:00,56.0,54.0,29.31,SSW,213,5.0,10.0,93,0.07,,,0.72,,2013-01-31 01:42:00,
2013-01-30 20:52:00,56.0,54.0,29.31,WSW,241,5.0,9.0,92,0.07,,,0.75,,2013-01-31 01:52:00,
2013-01-30 21:01:00,56.0,53.0,29.31,SW,232,8.0,20.0,90,0.09,,,0.79,,2013-01-31 02:01:00,
2013-01-30 21:12:00,56.0,53.0,29.31,SW,232,8.0,20.0,90,0.09,,,0.79,,2013-01-31 02:12:00,
2013-01-30 21:22:00,54.0,50.0,29.30,WSW,237,9.0,20.0,87,0.10,,,0.82,,2013-01-31 02:22:00,
2013-01-30 21:32:00,54.0,50.0,29.31,WSW,253,4.0,14.0,87,0.11,,,0.83,,2013-01-31 02:32:00,
2013-01-30 21:42:00,54.0,50.0,29.31,WSW,253,4.0,14.0,87,0.11,,,0.83,,2013-01-31 02:42:00,
2013-01-30 21:52:00,54.0,50.0,29.31,WSW,253,4.0,14.0,87,0.11,,,0.83,,2013-01-31 02:52:00,
2013-01-30 22:03:00,52.0,48.0,29.30,SW,224,7.0,16.0,87,0.06,,,0.85,,2013-01-31 03:03:00,
2013-01-30 22:11:00,52.0,48.0,29.30,SW,224,7.0,16.0,87,0.06,,,0.85,,2013-01-31 03:11:00,
2013-01-30 22:21:00,52.0,49.0,29.29,West,260,5.0,12.0,88,0.04,,,0.86,,2013-01-31 03:21:00,
2013-01-30 22:32:00,51.0,48.0,29.29,SW,233,3.0,11.0,89,0.04,,,0.87,,2013-01-31 03:32:00,
2013-01-30 22:42:00,51.0,48.0,29.29,SW,233,3.0,11.0,89,0.04,,,0.87,,2013-01-31 03:42:00,
2013-01-30 22:52:00,51.0,48.0,29.28,WSW,245,4.0,9.0,90,0.06,,,0.90,,2013-01-31 03:52:00,
2013-01-30 23:02:00,51.0,48.0,29.31,WSW,240,4.0,9.0,91,0.07,,,0.92,,2013-01-31 04:02:00,
2013-01-30 23:11:00,51.0,48.0,29.31,WSW,240,4.0,9.0,91,0.07,,,0.92,,2013-01-31 04:11:00,
2013-01-30 23:22:00,50.0,48.0,29.30,WSW,246,6.0,10.0,92,0.08,,,0.94,,2013-01-31 04:22:00,
2013-01-30 23:32:00,50.0,47.0,29.29,WSW,252,6.0,12.0,91,0.09,,,0.96,,2013-01-31 04:32:00,
2013-01-30 23:41:00,50.0,47.0,29.29,WSW,252,6.0,12.0,91,0.09,,,0.96,,2013-01-31 04:41:00,
2013-01-30 23:52:00,50.0,46.0,29.33,WSW,246,9.0,21.0,87,0.08,,,0.98,,2013-01-31 04:52:00,